Time;durP1;ratioP1;P1;durP2;ratioP2;P2;SDS_P1;SDS_P2;PMS_P1;PMS_P2;Temp;Humidity;BMP_temperature;BMP_pressure;BME280_temperature;BME280_humidity;BME280_pressure;Samples;Min_cycle;Max_cycle;Signal;HPM_P1;HPM_P2
2021/12/05 00:24:35;;;;;;;27.95;15.90;;;;;;;6.70;47.74;98901.68;2400780;82;25775;-70
2021/12/05 00:32:06;;;;;;;30.48;17.20;;;;;;;6.66;47.70;98906.37;2356750;83;25879;-70
2021/12/05 01:15:18;;;;;;;30.15;16.70;;;;;;;6.50;47.63;98942.78;2395237;81;25775;-70
2021/12/05 01:18:40;;;;;;;26.35;14.93;;;;;;;6.46;47.61;98934.09;2401061;82;25822;-70
2021/12/05 01:22:10;;;;;;;26.82;16.15;;;;;;;6.43;47.61;98940.52;2377694;82;25768;-70
2021/12/05 01:26:20;;;;;;;27.52;16.55;;;;;;;6.42;47.63;98936.19;2400137;81;25723;-84
2021/12/05 01:29:24;;;;;;;27.93;15.55;;;;;;;6.42;47.64;98945.68;2378380;82;25863;-70
2021/12/05 01:33:02;;;;;;;26.52;15.65;;;;;;;6.38;47.65;98944.33;2398715;82;26318;-70
2021/12/05 01:40:28;;;;;;;27.27;16.25;;;;;;;6.35;47.62;98936.51;2398768;81;26141;-70
2021/12/05 02:09:42;;;;;;;25.82;15.43;;;;;;;6.31;47.54;98913.12;2359057;83;25819;-69
2021/12/05 02:31:42;;;;;;;25.27;15.25;;;;;;;6.33;47.49;98917.48;2359553;83;25900;-81
2021/12/05 02:41:46;;;;;;;28.20;16.48;;;;;;;6.36;47.47;98938.24;2357524;83;25487;-73
2021/12/05 02:45:11;;;;;;;25.52;15.32;;;;;;;6.37;47.45;98932.64;2372868;79;25970;-69
2021/12/05 02:48:35;;;;;;;24.55;13.93;;;;;;;6.40;47.46;98932.69;2436503;80;25756;-69
2021/12/05 02:52:03;;;;;;;22.25;14.05;;;;;;;6.40;47.41;98922.34;2435286;81;25725;-81
2021/12/05 02:55:36;;;;;;;23.22;14.95;;;;;;;6.41;47.43;98922.78;2435558;80;26079;-70
2021/12/05 02:59:22;;;;;;;28.25;14.60;;;;;;;6.42;47.40;98914.62;2433890;80;25941;-71
2021/12/05 03:02:38;;;;;;;26.02;14.75;;;;;;;6.44;47.37;98915.06;2428359;79;26312;-72
2021/12/05 03:06:05;;;;;;;24.25;15.23;;;;;;;6.44;47.36;98913.77;2435401;80;25706;-70
2021/12/05 03:09:23;;;;;;;28.98;15.65;;;;;;;6.44;47.31;98904.71;2435591;80;25153;-81
2021/12/05 03:12:51;;;;;;;27.17;14.93;;;;;;;6.45;47.30;98906.48;2433423;81;25590;-70
2021/12/05 03:16:34;;;;;;;27.40;15.63;;;;;;;6.46;47.30;98903.46;2412018;81;25704;-69
2021/12/05 03:19:55;;;;;;;25.50;15.03;;;;;;;6.47;47.27;98902.61;2433747;80;25587;-70
2021/12/05 03:23:17;;;;;;;28.55;16.52;;;;;;;6.48;47.29;98904.34;2436038;81;25673;-71
2021/12/05 03:26:46;;;;;;;23.65;14.35;;;;;;;6.48;47.25;98906.92;2436128;81;25623;-71
2021/12/05 03:30:21;;;;;;;25.05;14.87;;;;;;;6.48;47.27;98907.83;2412088;81;25649;-70
2021/12/05 03:33:55;;;;;;;24.25;14.33;;;;;;;6.49;47.22;98912.57;2432126;80;25613;-68
2021/12/05 03:37:19;;;;;;;23.20;13.80;;;;;;;6.48;47.22;98901.75;2432213;81;25599;-70
2021/12/05 03:40:41;;;;;;;24.95;13.95;;;;;;;6.48;47.24;98909.12;2436030;81;25669;-70
2021/12/05 03:44:07;;;;;;;24.07;14.33;;;;;;;6.47;47.24;98904.77;2434832;81;25758;-70
2021/12/05 03:47:32;;;;;;;24.18;14.40;;;;;;;6.48;47.19;98904.34;2434969;80;25608;-69
2021/12/05 03:51:07;;;;;;;21.40;13.80;;;;;;;6.46;47.20;98912.52;2414238;81;25819;-75
2021/12/05 03:54:29;;;;;;;25.35;15.13;;;;;;;6.45;47.21;98918.13;2414654;81;25566;-71
2021/12/05 03:57:59;;;;;;;23.30;13.58;;;;;;;6.44;47.19;98909.02;2436967;81;25621;-70
2021/12/05 04:01:25;;;;;;;26.68;14.33;;;;;;;6.43;47.20;98902.11;2432685;81;25457;-70
2021/12/05 04:04:57;;;;;;;24.85;16.15;;;;;;;6.40;47.20;98904.22;2448997;80;25613;-69
2021/12/05 04:08:23;;;;;;;23.75;14.18;;;;;;;6.36;47.21;98905.89;2429114;79;25685;-70
2021/12/05 04:11:56;;;;;;;28.45;14.85;;;;;;;6.33;47.21;98905.84;2448495;80;25863;-84
2021/12/05 04:15:14;;;;;;;28.40;14.23;;;;;;;6.29;47.23;98894.13;2447793;80;25638;-70
2021/12/05 04:18:39;;;;;;;21.15;13.55;;;;;;;6.27;47.26;98888.91;2447434;80;25660;-79
2021/12/05 04:22:00;;;;;;;24.82;14.70;;;;;;;6.26;47.25;98896.23;2447198;80;25613;-70
2021/12/05 04:25:22;;;;;;;24.57;14.68;;;;;;;6.25;47.25;98898.38;2447367;80;25688;-71
2021/12/05 04:28:43;;;;;;;21.68;14.20;;;;;;;6.25;47.26;98911.75;2449938;79;25743;-70
2021/12/05 04:32:14;;;;;;;23.22;13.10;;;;;;;6.23;47.29;98924.64;2421486;80;26075;-69
2021/12/05 04:35:38;;;;;;;19.60;13.62;;;;;;;6.21;47.26;98923.76;2449831;79;25195;-70
2021/12/05 04:39:00;;;;;;;24.02;14.00;;;;;;;6.20;47.29;98925.01;2450235;80;25711;-69
2021/12/05 04:42:28;;;;;;;18.87;13.35;;;;;;;6.19;47.30;98931.04;2447659;80;25659;-69
2021/12/05 04:45:49;;;;;;;26.30;13.93;;;;;;;6.19;47.31;98941.39;2444710;80;25666;-69
2021/12/05 04:49:11;;;;;;;20.68;13.38;;;;;;;6.16;47.32;98935.73;2447010;80;25645;-70
2021/12/05 04:52:42;;;;;;;24.37;14.15;;;;;;;6.14;47.31;98949.05;2445271;80;25679;-69
2021/12/05 04:56:18;;;;;;;22.58;13.45;;;;;;;6.12;47.34;98952.05;2431726;80;25608;-70
2021/12/05 04:59:45;;;;;;;20.95;12.88;;;;;;;6.09;47.33;98950.70;2443164;80;26016;-80
2021/12/05 05:03:16;;;;;;;19.82;13.20;;;;;;;6.10;47.35;98962.34;2445309;79;25776;-70
2021/12/05 05:10:35;;;;;;;22.48;13.38;;;;;;;6.09;47.36;98955.44;2445243;80;25820;-70
2021/12/05 05:13:56;;;;;;;21.55;13.58;;;;;;;6.09;47.36;98950.70;2447349;80;26363;-69
2021/12/05 05:17:17;;;;;;;18.17;12.10;;;;;;;6.07;47.37;98960.12;2449413;79;25584;-72
2021/12/05 05:39:40;;;;;;;19.48;12.60;;;;;;;5.97;47.41;98942.70;2444620;79;25638;-70
2021/12/05 05:50:06;;;;;;;19.10;12.47;;;;;;;5.96;47.45;98943.55;2351613;83;25313;-79
2021/12/05 05:53:28;;;;;;;25.05;13.38;;;;;;;5.94;47.47;98942.23;2345905;83;25598;-69
2021/12/05 05:56:55;;;;;;;23.55;12.82;;;;;;;5.95;47.48;98937.51;2344756;83;25896;-81
2021/12/05 06:00:21;;;;;;;22.62;14.15;;;;;;;5.96;47.49;98940.53;2347001;84;25675;-80
2021/12/05 06:03:49;;;;;;;20.45;13.18;;;;;;;5.97;47.49;98943.56;2345622;83;25734;-69
2021/12/05 06:07:11;;;;;;;20.27;12.85;;;;;;;5.98;47.48;98953.52;2344081;83;25303;-70
2021/12/05 06:10:39;;;;;;;19.55;13.65;;;;;;;5.96;47.50;98950.88;2344255;84;25774;-74
2021/12/05 06:14:06;;;;;;;22.13;13.85;;;;;;;5.97;47.50;98944.85;2336800;83;26177;-71
2021/12/05 06:17:47;;;;;;;18.15;12.90;;;;;;;5.97;47.51;98951.32;2347126;83;25889;-69
2021/12/05 06:21:09;;;;;;;21.62;12.50;;;;;;;5.99;47.51;98956.54;2316234;84;26193;-82
2021/12/05 06:24:31;;;;;;;20.37;13.35;;;;;;;5.99;47.47;98951.37;2272076;84;25764;-70
2021/12/05 06:27:55;;;;;;;21.52;13.78;;;;;;;5.99;47.45;98957.41;2344560;83;25762;-75
2021/12/05 06:31:27;;;;;;;23.55;13.43;;;;;;;5.98;47.47;98967.31;2351955;81;25726;-81
2021/12/05 06:46:02;;;;;;;24.70;13.85;;;;;;;5.98;47.40;98976.37;2200377;89;26011;-69
2021/12/05 06:49:19;;;;;;;21.68;12.80;;;;;;;5.99;47.42;98980.69;2198536;88;25900;-69
2021/12/05 06:52:59;;;;;;;21.80;13.70;;;;;;;6.02;47.41;98981.17;2198604;88;25827;-69
2021/12/05 06:56:22;;;;;;;24.15;14.73;;;;;;;6.02;47.39;98988.51;2201695;88;25799;-77
2021/12/05 06:59:45;;;;;;;19.60;12.55;;;;;;;6.04;47.39;98989.42;2233026;88;25730;-73
2021/12/05 07:03:08;;;;;;;19.67;12.58;;;;;;;6.06;47.38;98994.61;2233248;87;25781;-72
2021/12/05 07:06:31;;;;;;;17.37;12.65;;;;;;;6.08;47.37;98998.12;2225540;87;25395;-85
2021/12/05 07:09:53;;;;;;;21.12;13.03;;;;;;;6.10;47.36;99005.04;2219507;87;25796;-69
2021/12/05 07:42:11;;;;;;;19.37;13.58;;;;;;;6.75;47.09;99018.75;2384282;82;25817;-82
2021/12/05 07:45:46;;;;;;;23.45;15.35;;;;;;;6.84;47.03;99010.24;2383897;82;25769;-70
2021/12/05 07:49:23;;;;;;;18.67;12.78;;;;;;;6.92;46.95;99000.00;2360378;82;25736;-79
2021/12/05 07:52:50;;;;;;;22.42;14.33;;;;;;;7.00;46.86;99009.64;2359005;82;25728;-83
2021/12/05 07:56:19;;;;;;;24.40;13.28;;;;;;;7.09;46.76;99017.58;2381663;82;25867;-82
2021/12/05 08:14:33;;;;;;;22.40;14.18;;;;;;;7.29;46.46;99017.87;2408519;82;25472;-70
2021/12/05 08:17:52;;;;;;;20.48;14.00;;;;;;;7.32;46.44;99027.40;2401442;81;25684;-69
2021/12/05 08:22:00;;;;;;;23.07;13.83;;;;;;;7.33;46.38;99026.14;2403877;82;25699;-84
2021/12/05 08:25:36;;;;;;;21.40;14.80;;;;;;;7.36;46.31;99024.42;2401387;82;25703;-70
2021/12/05 08:29:18;;;;;;;29.20;15.75;;;;;;;7.40;46.29;99033.59;2404818;82;25737;-72
2021/12/05 08:32:58;;;;;;;17.25;14.15;;;;;;;7.43;46.30;99041.84;2434628;80;26169;-71
2021/12/05 08:45:22;;;;;;;20.65;13.85;;;;;;;7.56;46.16;99033.39;2397893;81;25934;-70
2021/12/05 09:51:56;;;;;;;25.15;13.68;;;;;;;8.33;45.45;99041.67;2522477;78;25779;-80
2021/12/05 10:10:21;;;;;;;19.90;13.20;;;;;;;8.78;45.18;99050.84;2460432;80;25635;-81
2021/12/05 10:13:51;;;;;;;17.73;11.78;;;;;;;8.86;45.10;99043.98;2505593;78;25795;-69
2021/12/05 10:36:06;;;;;;;23.70;15.78;;;;;;;9.19;48.59;99029.09;2530053;76;25192;-73
2021/12/05 10:39:31;;;;;;;28.85;17.92;;;;;;;8.96;47.35;99027.61;2531869;77;25702;-75
2021/12/05 10:43:17;;;;;;;28.00;17.57;;;;;;;8.74;46.44;99026.97;2529721;77;30821;-75
2021/12/05 10:46:41;;;;;;;27.77;17.67;;;;;;;8.57;46.02;99031.13;2513102;77;25993;-73
2021/12/05 10:51:00;;;;;;;26.15;17.02;;;;;;;8.42;45.86;99037.92;2506571;77;25135;-73
2021/12/05 10:54:36;;;;;;;31.93;16.27;;;;;;;8.37;46.03;99038.28;2523236;77;25703;-74
2021/12/05 10:58:38;;;;;;;34.38;18.05;;;;;;;8.32;46.28;99027.39;2551878;76;25748;-73
2021/12/05 11:01:56;;;;;;;26.37;15.78;;;;;;;8.28;46.49;99029.09;2541046;77;25574;-75
2021/12/05 11:05:41;;;;;;;25.50;16.97;;;;;;;8.20;46.51;99028.11;2557416;77;25641;-73
2021/12/05 11:09:13;;;;;;;18.87;13.22;;;;;;;8.15;46.64;99023.31;2499938;78;26149;-70
2021/12/05 11:12:41;;;;;;;34.75;16.82;;;;;;;8.38;52.39;99021.01;2408031;82;25723;-71
2021/12/05 11:16:22;;;;;;;23.77;15.60;;;;;;;8.58;50.93;99021.21;2439579;77;25285;-71
2021/12/05 11:20:11;;;;;;;25.27;16.40;;;;;;;8.64;49.85;99032.94;2440792;79;26136;-77
2021/12/05 11:36:57;;;;;;;31.70;17.00;;;;;;;8.01;48.83;99032.23;2468872;78;26097;-73
2021/12/05 11:40:24;;;;;;;29.52;17.25;;;;;;;7.84;48.84;99035.91;2399009;80;25603;-71
2021/12/05 11:44:02;;;;;;;26.45;17.30;;;;;;;7.76;48.77;99037.12;2449248;79;25610;-73
2021/12/05 11:47:24;;;;;;;24.60;17.32;;;;;;;7.69;48.62;99046.08;2436113;80;26283;-73
2021/12/05 11:50:45;;;;;;;28.27;18.55;;;;;;;7.64;48.60;99034.35;2395794;80;25760;-71
2021/12/05 11:54:29;;;;;;;32.33;17.50;;;;;;;7.60;48.63;99040.36;2420861;80;25684;-72
2021/12/05 11:58:02;;;;;;;;;;;;;;;;;;;;;
2021/12/05 12:01:46;;;;;;;27.70;18.45;;;;;;;7.57;48.51;99038.58;2384946;81;25785;-76
2021/12/05 12:05:37;;;;;;;28.80;17.73;;;;;;;7.46;48.24;99031.48;2418751;81;26280;-76
2021/12/05 12:09:12;;;;;;;30.37;18.55;;;;;;;7.33;47.94;99026.57;2303148;84;25703;-78
2021/12/05 12:12:33;;;;;;;33.53;19.25;;;;;;;7.26;47.78;99020.42;2316597;84;31006;-76
2021/12/05 12:15:59;;;;;;;32.80;19.60;;;;;;;7.20;47.69;99014.27;2318557;84;25748;-75
2021/12/05 12:19:22;;;;;;;30.37;19.15;;;;;;;7.17;47.59;99014.22;2337346;83;25937;-78
2021/12/05 12:22:55;;;;;;;29.52;19.02;;;;;;;7.14;47.53;99008.98;2336810;83;25706;-72
2021/12/05 12:26:28;;;;;;;33.38;19.32;;;;;;;7.12;47.59;98998.62;2343218;83;25718;-74
2021/12/05 12:29:59;;;;;;;31.75;19.32;;;;;;;7.13;47.73;98993.88;2344517;81;26043;-72
2021/12/05 12:33:54;;;;;;;37.23;18.02;;;;;;;7.12;47.82;99009.38;2320420;83;25337;-73
2021/12/05 12:37:15;;;;;;;28.35;18.62;;;;;;;7.06;47.85;99007.16;2360203;83;25910;-72
2021/12/05 12:41:08;;;;;;;27.80;18.30;;;;;;;7.02;47.91;99000.59;2364708;83;25681;-87
2021/12/05 12:44:36;;;;;;;24.92;16.73;;;;;;;6.94;48.55;99006.95;2373030;82;25788;-76
2021/12/05 12:48:29;;;;;;;31.35;18.17;;;;;;;7.09;48.71;99011.52;2376545;82;26141;-75
2021/12/05 12:56:09;;;;;;;29.32;16.48;;;;;;;7.27;48.79;99024.75;2240257;86;25969;-71
2021/12/05 12:59:34;;;;;;;20.65;13.03;;;;;;;7.36;48.76;99027.02;2274606;84;26009;-73
2021/12/05 13:07:24;;;;;;;23.30;14.40;;;;;;;8.05;52.77;99041.36;2264333;86;26337;-78
2021/12/05 13:11:28;;;;;;;27.07;14.20;;;;;;;8.04;52.60;99040.06;2248896;87;26108;-76
2021/12/05 13:15:30;;;;;;;28.52;14.25;;;;;;;8.03;52.52;99046.98;2255048;87;25309;-70
2021/12/05 13:19:33;;;;;;;21.50;13.62;;;;;;;8.00;52.19;99045.64;2210633;88;25779;-71
2021/12/05 13:23:17;;;;;;;22.15;13.83;;;;;;;7.95;51.89;99049.88;2193231;89;25865;-70
2021/12/05 13:26:43;;;;;;;25.32;13.98;;;;;;;7.90;51.63;99064.55;2192251;88;25978;-74
2021/12/05 13:30:52;;;;;;;29.87;14.13;;;;;;;7.85;51.38;99076.56;2187399;88;26034;-77
2021/12/05 13:35:02;;;;;;;18.45;12.80;;;;;;;7.83;51.24;99083.88;2295498;84;25775;-76
2021/12/05 13:38:41;;;;;;;23.22;14.18;;;;;;;7.78;51.05;99087.72;2198257;86;25804;-74
2021/12/05 13:46:38;;;;;;;26.33;15.08;;;;;;;7.82;51.43;99097.27;2120277;90;26259;-76
2021/12/05 13:50:42;;;;;;;22.75;14.28;;;;;;;7.77;51.33;99107.59;2096961;91;26010;-79
2021/12/05 13:54:38;;;;;;;26.68;14.85;;;;;;;7.71;51.08;99104.05;2049516;93;26458;-75
2021/12/05 13:58:48;;;;;;;24.30;15.98;;;;;;;7.60;50.86;99108.21;2032522;94;26485;-71
2021/12/05 14:02:14;;;;;;;28.35;16.65;;;;;;;7.50;50.79;99104.17;2038068;96;26524;-71
2021/12/05 14:05:35;;;;;;;30.82;16.77;;;;;;;7.42;50.67;99104.46;2047523;96;25705;-71
2021/12/05 14:09:34;;;;;;;34.98;17.20;;;;;;;7.35;50.65;99110.41;2023429;94;25755;-72
2021/12/05 14:12:57;;;;;;;29.35;17.20;;;;;;;7.30;50.61;99105.16;2038269;91;26486;-72
2021/12/05 14:16:20;;;;;;;32.42;17.92;;;;;;;7.23;50.66;99102.45;2158310;89;26021;-73
2021/12/05 14:19:45;;;;;;;32.93;18.65;;;;;;;7.19;50.64;99095.05;2200099;88;26365;-72
2021/12/05 14:23:25;;;;;;;32.42;17.80;;;;;;;7.16;50.65;99105.36;2189176;89;25846;-76
2021/12/05 14:27:00;;;;;;;29.15;18.37;;;;;;;7.12;50.66;99100.98;2174066;89;26193;-72
2021/12/05 14:30:38;;;;;;;31.85;17.20;;;;;;;7.08;50.65;99109.09;2216748;85;26031;-71
2021/12/05 14:34:09;;;;;;;34.08;17.12;;;;;;;7.05;50.68;99100.40;2279266;85;25836;-72
2021/12/05 14:37:56;;;;;;;35.17;18.45;;;;;;;7.00;50.71;99102.92;2354792;81;25772;-72
2021/12/05 14:41:31;;;;;;;29.60;16.93;;;;;;;7.02;51.14;99105.12;2344297;83;26157;-73
2021/12/05 14:45:42;;;;;;;31.55;18.65;;;;;;;7.07;51.25;99112.55;2341449;81;25713;-72
2021/12/05 14:49:11;;;;;;;38.48;19.42;;;;;;;7.03;51.20;99117.23;2255934;84;26504;-71
2021/12/05 14:52:53;;;;;;;38.02;18.17;;;;;;;6.98;51.17;99120.58;2263129;84;25819;-72
2021/12/05 14:56:28;;;;;;;35.35;20.12;;;;;;;6.92;51.17;99126.55;2247894;84;25833;-72
2021/12/05 14:59:54;;;;;;;36.13;18.30;;;;;;;6.86;51.18;99128.59;2272540;84;25923;-70
2021/12/05 15:03:27;;;;;;;37.15;19.40;;;;;;;6.83;51.22;99137.59;2294574;84;25707;-71
2021/12/05 15:07:03;;;;;;;38.92;19.20;;;;;;;6.80;51.26;99132.78;2223440;87;26361;-71
2021/12/05 15:10:34;;;;;;;36.98;19.60;;;;;;;6.78;51.27;99141.84;2227492;87;25764;-72
2021/12/05 15:14:09;;;;;;;38.23;19.45;;;;;;;6.75;51.28;99131.41;2206903;87;26026;-70
2021/12/05 15:17:43;;;;;;;34.13;18.05;;;;;;;6.75;51.32;99131.81;2205062;89;25781;-72
2021/12/05 15:21:05;;;;;;;32.35;18.42;;;;;;;6.82;51.32;99133.27;2199048;89;25709;-71
2021/12/05 15:24:32;;;;;;;34.48;18.45;;;;;;;6.85;51.29;99138.91;2206594;88;25361;-71
2021/12/05 15:28:10;;;;;;;34.33;18.12;;;;;;;6.84;51.26;99143.22;2204708;87;25708;-80
2021/12/05 15:31:41;;;;;;;33.92;18.27;;;;;;;6.88;51.26;99151.05;2184853;88;25801;-72
2021/12/05 15:35:13;;;;;;;31.80;18.85;;;;;;;6.90;51.29;99158.44;2204664;89;26225;-71
2021/12/05 15:38:43;;;;;;;31.95;17.60;;;;;;;6.94;51.30;99149.44;2203005;88;26479;-70
2021/12/05 15:42:27;;;;;;;31.77;17.85;;;;;;;6.99;51.40;99146.95;2191518;88;25943;-74
2021/12/05 15:45:58;;;;;;;27.98;17.40;;;;;;;7.03;51.47;99157.39;2341267;83;25721;-75
2021/12/05 15:49:19;;;;;;;32.63;17.80;;;;;;;7.07;51.50;99154.00;2348513;81;26054;-71
2021/12/05 15:52:58;;;;;;;28.13;17.27;;;;;;;7.10;51.55;99153.19;2352652;82;26323;-72
2021/12/05 15:56:27;;;;;;;30.08;18.73;;;;;;;7.10;51.53;99151.47;2370455;82;26163;-72
2021/12/05 15:59:51;;;;;;;36.25;17.85;;;;;;;7.09;51.50;99157.51;2344000;83;25741;-82
2021/12/05 16:03:35;;;;;;;;;;;;;;;;;;;;;
2021/12/05 16:06:50;;;;;;;34.15;19.17;;;;;;;7.07;51.44;99157.89;2337663;81;25547;-91
2021/12/05 16:10:35;;;;;;;32.30;17.92;;;;;;;7.06;51.44;99153.98;2357002;81;25901;-74
2021/12/05 16:14:02;;;;;;;32.73;18.55;;;;;;;7.02;51.43;99158.25;2348268;83;25934;-71
2021/12/05 16:17:33;;;;;;;33.58;18.57;;;;;;;7.03;51.41;99159.98;2374649;81;25561;-70
2021/12/05 16:21:05;;;;;;;29.18;18.77;;;;;;;7.01;51.42;99170.73;2404908;81;26314;-70
2021/12/05 16:24:26;;;;;;;27.60;17.65;;;;;;;7.00;51.41;99165.53;2356254;82;25629;-71
2021/12/05 16:28:07;;;;;;;31.87;17.32;;;;;;;6.99;51.42;99165.09;2351893;81;25454;-72
2021/12/05 16:31:53;;;;;;;27.22;17.45;;;;;;;6.98;51.44;99168.08;2283296;83;26310;-72
2021/12/05 16:35:54;;;;;;;29.45;18.15;;;;;;;6.96;51.43;99158.12;2305439;84;26378;-71
2021/12/05 16:39:55;;;;;;;29.02;18.10;;;;;;;6.97;51.49;99161.16;2306436;84;25694;-73
2021/12/05 16:43:49;;;;;;;26.80;18.07;;;;;;;6.94;51.47;99169.30;2229266;87;25839;-70
2021/12/05 16:47:43;;;;;;;27.58;16.82;;;;;;;6.94;51.49;99161.53;2154804;91;26111;-71
2021/12/05 16:51:31;;;;;;;28.77;17.73;;;;;;;6.92;51.56;99164.11;2148495;91;25714;-71
2021/12/05 16:55:41;;;;;;;28.05;18.15;;;;;;;6.92;51.55;99164.11;2121255;92;25771;-72
2021/12/05 16:59:50;;;;;;;24.87;17.12;;;;;;;6.93;51.58;99161.09;2128114;92;26326;-71
2021/12/05 17:03:35;;;;;;;27.70;16.40;;;;;;;6.92;51.60;99164.50;2123187;92;25787;-72
2021/12/05 17:06:56;;;;;;;27.10;17.27;;;;;;;6.91;51.60;99167.95;2089247;94;25886;-71
2021/12/05 17:10:37;;;;;;;25.72;16.70;;;;;;;6.92;51.63;99173.56;2088692;94;26175;-70
2021/12/05 17:14:22;;;;;;;26.73;17.40;;;;;;;6.91;51.64;99183.06;1995149;97;25778;-71
2021/12/05 17:17:49;;;;;;;23.05;16.32;;;;;;;6.89;51.67;99186.06;1968455;97;26194;-77
2021/12/05 17:21:49;;;;;;;23.80;16.48;;;;;;;6.89;51.69;99183.91;2048734;93;26057;-83
2021/12/05 17:25:43;;;;;;;28.90;16.60;;;;;;;6.89;51.74;99183.91;2098941;92;26369;-75
2021/12/05 17:29:19;;;;;;;29.55;18.00;;;;;;;6.87;51.78;99179.97;2089307;92;26250;-74
2021/12/05 17:32:40;;;;;;;21.75;15.68;;;;;;;6.88;51.84;99181.70;2070279;91;25890;-70
2021/12/05 17:36:27;;;;;;;22.10;15.70;;;;;;;6.90;51.83;99186.94;2132875;91;26079;-78
2021/12/05 17:40:04;;;;;;;23.12;16.62;;;;;;;6.90;51.85;99181.33;2082061;93;26012;-70
2021/12/05 17:43:26;;;;;;;20.15;14.60;;;;;;;6.91;51.87;99179.18;2103041;92;25814;-91
2021/12/05 17:47:25;;;;;;;24.87;16.17;;;;;;;6.92;51.89;99182.24;2148856;91;25854;-74
2021/12/05 17:51:07;;;;;;;21.42;15.75;;;;;;;6.93;51.87;99189.59;2192852;86;25800;-79
2021/12/05 18:05:52;;;;;;;23.98;16.67;;;;;;;6.95;51.93;99191.38;2251740;86;25667;-70
2021/12/05 18:09:14;;;;;;;20.25;15.95;;;;;;;6.95;51.92;99191.77;2241958;86;25621;-78
2021/12/05 18:12:38;;;;;;;25.00;16.42;;;;;;;6.96;51.93;99185.34;2250624;86;25756;-74
2021/12/05 18:16:16;;;;;;;23.12;16.12;;;;;;;6.97;51.93;99183.61;2285387;84;26351;-70
2021/12/05 18:19:49;;;;;;;18.27;14.80;;;;;;;6.98;51.95;99182.33;2328966;82;25674;-87
2021/12/05 18:23:12;;;;;;;25.27;16.32;;;;;;;6.98;51.94;99181.46;2259385;85;25901;-80
2021/12/05 18:26:47;;;;;;;24.43;16.17;;;;;;;7.00;51.97;99186.27;2247303;86;25953;-79
2021/12/05 18:30:22;;;;;;;23.87;16.20;;;;;;;7.00;51.95;99188.86;2196769;88;25224;-69
2021/12/05 18:33:52;;;;;;;28.25;16.25;;;;;;;6.98;51.95;99188.80;2224131;87;25709;-89
2021/12/05 18:41:08;;;;;;;25.90;17.05;;;;;;;7.00;52.01;99203.97;2215534;87;25771;-69
2021/12/05 18:44:48;;;;;;;26.27;18.17;;;;;;;7.00;52.00;99209.16;2233303;87;25793;-70
2021/12/05 18:48:07;;;;;;;24.00;17.67;;;;;;;7.01;52.00;99218.67;2227269;88;25826;-70
2021/12/05 18:51:48;;;;;;;23.80;16.45;;;;;;;7.01;52.03;99220.39;2240565;86;26423;-70
2021/12/05 18:55:22;;;;;;;28.62;16.82;;;;;;;7.03;52.07;99222.60;2155196;90;26221;-70
2021/12/05 18:58:44;;;;;;;32.35;17.42;;;;;;;7.03;52.08;99218.29;1960794;98;25813;-70
2021/12/05 19:06:08;;;;;;;21.65;16.90;;;;;;;7.07;52.07;99222.67;2015952;97;25733;-70
2021/12/05 19:13:09;;;;;;;29.55;19.52;;;;;;;7.09;52.07;99224.89;1973779;99;25880;-70
2021/12/05 19:16:34;;;;;;;30.20;18.50;;;;;;;7.10;52.07;99224.46;1961463;99;25772;-69
2021/12/05 19:20:18;;;;;;;25.27;17.35;;;;;;;7.12;52.08;99225.77;1980208;97;26188;-81
2021/12/05 19:23:45;;;;;;;27.17;17.92;;;;;;;7.12;52.09;99221.48;1992570;96;26286;-70
2021/12/05 19:27:15;;;;;;;27.48;17.87;;;;;;;7.13;52.10;99226.24;1990226;98;25963;-68
2021/12/05 19:30:39;;;;;;;;;;;;;;;7.13;52.12;99224.95;2015251;94;25354;-71
2021/12/05 19:34:09;;;;;;;29.82;18.17;;;;;;;7.15;52.12;99232.31;2047130;91;25877;-71
2021/12/05 19:37:33;;;;;;;31.12;17.85;;;;;;;7.14;52.15;99244.83;2152028;89;26077;-71
2021/12/05 19:41:04;;;;;;;27.32;17.82;;;;;;;7.15;52.15;99247.43;2177205;87;25846;-69
2021/12/05 19:44:35;;;;;;;26.12;18.25;;;;;;;7.16;52.16;99250.92;2176862;89;25715;-70
2021/12/05 19:48:12;;;;;;;25.40;16.80;;;;;;;7.16;52.16;99255.68;2242250;87;25340;-69
2021/12/05 19:51:39;;;;;;;24.85;17.35;;;;;;;7.18;52.15;99251.81;2360237;83;25651;-70
2021/12/05 19:55:06;;;;;;;27.30;18.90;;;;;;;7.18;52.17;99247.92;2361139;83;25687;-69
2021/12/05 19:58:27;;;;;;;29.57;18.60;;;;;;;7.18;52.17;99256.98;2362929;81;25636;-69
2021/12/05 20:02:06;;;;;;;26.27;18.12;;;;;;;7.18;52.20;99265.64;2358467;81;25735;-70
2021/12/05 20:05:34;;;;;;;27.60;18.92;;;;;;;7.19;52.19;99271.30;2360960;82;25679;-71
2021/12/05 20:08:57;;;;;;;28.57;18.90;;;;;;;7.17;52.21;99282.47;2340786;82;26417;-71
2021/12/05 20:12:25;;;;;;;30.17;19.20;;;;;;;7.13;52.23;99282.83;2355827;82;25764;-71
2021/12/05 20:15:55;;;;;;;28.35;19.25;;;;;;;7.13;52.27;99293.20;2355334;83;25674;-70
2021/12/05 20:19:34;;;;;;;24.90;19.02;;;;;;;7.13;52.33;99294.50;2338578;82;25959;-71
2021/12/05 20:23:01;;;;;;;25.75;18.60;;;;;;;7.17;52.29;99294.13;2356149;83;25606;-73
2021/12/05 20:26:40;;;;;;;28.35;17.65;;;;;;;7.20;52.28;99292.90;2345386;83;25974;-70
2021/12/05 20:30:01;;;;;;;27.37;18.60;;;;;;;7.23;52.28;99299.44;2363492;83;25713;-70
2021/12/05 20:33:22;;;;;;;27.80;19.37;;;;;;;7.25;52.25;99297.73;2347637;81;25644;-70
2021/12/05 20:36:44;;;;;;;29.10;17.77;;;;;;;7.27;52.26;99304.70;2359405;83;25710;-71
2021/12/05 20:40:17;;;;;;;29.07;17.90;;;;;;;7.30;52.23;99300.87;2353083;82;25626;-71
2021/12/05 20:43:38;;;;;;;25.72;17.57;;;;;;;7.30;52.20;99300.87;2219374;87;26072;-70
2021/12/05 20:46:59;;;;;;;23.62;16.42;;;;;;;7.34;52.17;99301.38;2218075;89;26256;-70
2021/12/05 20:50:40;;;;;;;20.03;16.47;;;;;;;7.35;52.17;99295.77;2200973;89;25765;-71
2021/12/05 20:54:22;;;;;;;25.12;17.30;;;;;;;7.37;52.15;99299.70;2201378;88;25846;-74
2021/12/05 20:58:07;;;;;;;26.17;17.92;;;;;;;7.39;52.12;99303.18;2216281;89;26105;-72
2021/12/05 21:01:33;;;;;;;24.65;16.52;;;;;;;7.40;52.11;99305.82;2212473;87;25675;-71
2021/12/05 21:05:05;;;;;;;122.20;57.20;;;;;;;7.41;52.13;99297.62;2215685;89;26186;-73
2021/12/05 21:08:45;;;;;;;91.95;47.55;;;;;;;7.52;54.18;99302.56;2213220;88;25864;-73
2021/12/05 21:12:22;;;;;;;68.33;39.40;;;;;;;7.63;54.53;99304.05;2217220;88;25971;-76
2021/12/05 21:19:43;;;;;;;62.45;35.15;;;;;;;7.62;54.33;99299.72;2156303;87;25846;-78
2021/12/05 21:23:08;;;;;;;65.45;33.83;;;;;;;7.61;54.28;99291.50;2246238;87;25715;-74
2021/12/05 21:26:54;;;;;;;60.92;33.23;;;;;;;7.60;54.24;99289.34;2243961;86;25709;-74
2021/12/05 21:30:39;;;;;;;58.25;30.20;;;;;;;7.60;54.18;99282.85;2225233;86;26372;-74
2021/12/05 21:34:02;;;;;;;57.75;30.12;;;;;;;7.60;54.09;99285.88;2243043;87;25887;-73
2021/12/05 21:37:28;;;;;;;53.40;30.05;;;;;;;7.60;54.01;99293.66;2200642;89;26306;-75
2021/12/05 21:41:22;;;;;;;56.88;31.40;;;;;;;7.59;53.92;99295.34;2184943;89;25818;-72
2021/12/05 21:44:49;;;;;;;55.83;31.02;;;;;;;7.61;53.86;99297.98;2228928;86;25817;-71
2021/12/05 21:48:11;;;;;;;57.05;31.17;;;;;;;7.59;53.80;99300.53;2246151;86;25707;-72
2021/12/05 21:51:32;;;;;;;55.70;28.30;;;;;;;7.60;53.74;99291.06;2382210;82;25585;-72
2021/12/05 21:54:56;;;;;;;47.83;27.58;;;;;;;7.59;53.68;99291.45;2388048;81;25724;-77
2021/12/05 21:58:24;;;;;;;47.67;27.30;;;;;;;7.59;53.64;99290.16;2367439;82;25660;-72
2021/12/05 22:02:01;;;;;;;45.08;26.77;;;;;;;7.57;53.57;99286.25;2381993;83;25508;-73
2021/12/05 22:05:35;;;;;;;45.35;28.15;;;;;;;7.60;53.52;99294.95;2379839;81;25562;-80
2021/12/05 22:08:59;;;;;;;45.10;26.70;;;;;;;7.60;53.48;99298.84;2343596;83;25603;-73
2021/12/05 22:12:35;;;;;;;44.95;24.87;;;;;;;7.67;54.60;99300.27;2337469;82;25609;-72
2021/12/05 22:16:04;;;;;;;44.40;25.62;;;;;;;7.71;54.42;99296.88;2337549;84;25622;-74
2021/12/05 22:19:37;;;;;;;44.15;25.35;;;;;;;7.71;54.46;99310.27;2338194;84;25472;-71
2021/12/05 22:23:14;;;;;;;44.83;25.77;;;;;;;7.69;54.40;99314.12;2321269;84;25742;-73
2021/12/05 22:27:01;;;;;;;36.55;22.75;;;;;;;7.68;54.35;99308.91;2270181;86;25845;-71
2021/12/05 22:30:25;;;;;;;39.90;22.73;;;;;;;7.66;54.27;99293.73;2199276;89;25823;-69
2021/12/05 22:34:05;;;;;;;37.20;23.92;;;;;;;7.64;54.18;99295.02;2195947;89;26076;-72
2021/12/05 22:37:26;;;;;;;32.10;22.07;;;;;;;7.64;54.13;99294.16;2199843;89;25657;-72
2021/12/05 22:41:19;;;;;;;34.80;21.97;;;;;;;7.63;54.06;99301.06;2207236;87;26503;-72